Time;durP1;ratioP1;P1;durP2;ratioP2;P2;SDS_P1;SDS_P2;PMS_P1;PMS_P2;Temp;Humidity;BMP_temperature;BMP_pressure;BME280_temperature;BME280_humidity;BME280_pressure;Samples;Min_cycle;Max_cycle;Signal;HPM_P1;HPM_P2
2022/05/29 00:01:08;;;;;;;5.40;1.90;;;11.80;55.10;;;;;;952213;149;27352;-76
2022/05/29 00:03:35;;;;;;;4.00;2.00;;;11.80;55.20;;;;;;960797;147;27434;-75
2022/05/29 00:06:01;;;;;;;2.60;2.03;;;11.70;55.20;;;;;;951044;149;27924;-75
2022/05/29 00:08:31;;;;;;;2.63;2.07;;;11.70;55.50;;;;;;943861;149;27740;-76
2022/05/29 00:10:57;;;;;;;2.47;1.53;;;11.70;55.40;;;;;;943572;149;27332;-75
2022/05/29 00:13:24;;;;;;;3.13;1.87;;;11.60;55.60;;;;;;943403;149;27497;-74
2022/05/29 00:15:50;;;;;;;2.43;1.70;;;11.60;55.70;;;;;;944071;149;27340;-74
2022/05/29 00:18:17;;;;;;;3.73;1.83;;;11.60;55.70;;;;;;943132;149;27358;-75
2022/05/29 00:20:44;;;;;;;2.63;1.60;;;11.60;55.90;;;;;;943152;149;27756;-75
2022/05/29 00:23:10;;;;;;;3.73;2.00;;;11.50;55.90;;;;;;943064;149;27277;-75
2022/05/29 00:25:37;;;;;;;2.33;1.47;;;11.50;55.90;;;;;;941622;149;27344;-75
2022/05/29 00:28:03;;;;;;;2.57;1.60;;;11.50;56.10;;;;;;957146;147;27335;-75
2022/05/29 00:30:30;;;;;;;2.97;1.63;;;11.50;56.10;;;;;;949663;149;27383;-75
2022/05/29 00:32:57;;;;;;;3.83;1.73;;;11.50;56.20;;;;;;950211;151;27435;-75
2022/05/29 00:35:23;;;;;;;2.23;1.60;;;11.50;56.30;;;;;;940661;150;27372;-75
2022/05/29 00:37:50;;;;;;;2.57;1.70;;;11.50;56.50;;;;;;942774;149;27317;-75
2022/05/29 00:40:28;;;;;;;2.13;1.70;;;11.40;56.60;;;;;;950287;149;27380;-75
2022/05/29 00:42:55;;;;;;;2.83;1.70;;;11.40;56.70;;;;;;957645;147;27470;-75
2022/05/29 00:45:21;;;;;;;1.87;1.60;;;11.40;56.40;;;;;;949641;151;27440;-75
2022/05/29 00:47:48;;;;;;;3.93;1.70;;;11.40;56.70;;;;;;957217;147;27363;-75
2022/05/29 00:50:14;;;;;;;3.07;1.93;;;11.40;56.80;;;;;;948453;149;27325;-75
2022/05/29 00:52:41;;;;;;;4.33;1.97;;;11.40;56.80;;;;;;955848;147;27362;-75
2022/05/29 00:55:08;;;;;;;4.70;2.20;;;11.40;57.10;;;;;;946897;149;27367;-74
2022/05/29 00:57:34;;;;;;;3.77;1.70;;;11.40;57.10;;;;;;942571;149;27330;-75
2022/05/29 01:00:01;;;;;;;5.47;2.10;;;11.40;57.20;;;;;;948265;148;27305;-75
2022/05/29 01:02:27;;;;;;;2.53;1.57;;;11.30;57.30;;;;;;955448;147;27639;-75
2022/05/29 01:04:54;;;;;;;3.70;1.80;;;11.30;57.30;;;;;;949048;149;27333;-75
2022/05/29 01:07:21;;;;;;;3.63;2.03;;;11.30;57.30;;;;;;958382;147;27704;-74
2022/05/29 01:09:47;;;;;;;3.13;2.03;;;11.30;57.50;;;;;;942036;149;27453;-76
2022/05/29 01:12:26;;;;;;;2.57;1.67;;;11.30;57.60;;;;;;956563;147;27362;-75
2022/05/29 01:15:20;;;;;;;3.47;1.73;;;11.20;57.70;;;;;;941561;149;27855;-75
2022/05/29 01:18:11;;;;;;;4.30;1.93;;;11.20;57.80;;;;;;942591;149;27342;-74
2022/05/29 01:20:40;;;;;;;5.27;2.17;;;11.20;57.70;;;;;;941919;149;27334;-75
2022/05/29 01:23:15;;;;;;;2.37;1.60;;;11.20;57.60;;;;;;941721;149;27430;-75
2022/05/29 01:25:42;;;;;;;2.07;1.70;;;11.20;57.80;;;;;;942088;149;27368;-74
2022/05/29 01:28:27;;;;;;;3.17;1.77;;;11.10;57.90;;;;;;940731;150;27330;-74
2022/05/29 01:30:56;;;;;;;3.10;1.83;;;11.10;58.00;;;;;;941364;149;27352;-74
2022/05/29 01:33:41;;;;;;;2.77;1.83;;;11.10;57.90;;;;;;941233;149;27352;-74
2022/05/29 01:36:10;;;;;;;6.17;1.70;;;11.10;58.00;;;;;;941679;149;27454;-74
2022/05/29 01:38:55;;;;;;;2.60;1.73;;;11.10;57.90;;;;;;941587;149;27364;-74
2022/05/29 01:41:22;;;;;;;1.70;1.50;;;11.00;58.00;;;;;;941834;149;27475;-75
2022/05/29 01:44:00;;;;;;;2.50;1.63;;;10.90;58.50;;;;;;941323;149;27317;-75
2022/05/29 01:46:33;;;;;;;5.17;2.07;;;10.90;58.30;;;;;;941050;149;27329;-75
2022/05/29 01:49:13;;;;;;;5.13;2.23;;;10.80;58.20;;;;;;941673;149;27419;-75
2022/05/29 01:52:06;;;;;;;4.30;2.00;;;10.80;58.40;;;;;;942969;149;27409;-75
2022/05/29 01:54:41;;;;;;;3.23;1.80;;;10.80;58.70;;;;;;942194;149;27369;-75
2022/05/29 01:57:26;;;;;;;4.00;2.13;;;10.70;58.70;;;;;;942650;149;27468;-75
2022/05/29 02:00:10;;;;;;;2.70;1.90;;;10.70;58.80;;;;;;941797;149;27281;-75
2022/05/29 02:02:43;;;;;;;3.43;1.60;;;10.70;58.80;;;;;;942423;149;27360;-74
2022/05/29 02:05:09;;;;;;;1.83;1.70;;;10.60;58.80;;;;;;943049;149;27410;-74
2022/05/29 02:07:48;;;;;;;1.73;1.63;;;10.60;59.00;;;;;;942859;149;27334;-74
2022/05/29 02:10:17;;;;;;;3.97;1.83;;;10.60;59.10;;;;;;942318;149;27759;-74
2022/05/29 02:12:44;;;;;;;2.67;1.80;;;10.60;59.20;;;;;;941090;149;27310;-74
2022/05/29 02:15:10;;;;;;;2.73;2.20;;;10.60;59.30;;;;;;941687;150;27334;-74
2022/05/29 02:17:37;;;;;;;5.60;1.87;;;10.50;59.40;;;;;;942429;149;27395;-74
2022/05/29 02:20:03;;;;;;;2.10;1.73;;;10.50;59.50;;;;;;941407;149;27364;-74
2022/05/29 02:22:30;;;;;;;3.27;1.90;;;10.50;59.60;;;;;;941422;150;27333;-74
2022/05/29 02:25:02;;;;;;;3.90;2.20;;;10.40;59.50;;;;;;941762;149;27392;-74
2022/05/29 02:27:32;;;;;;;2.87;2.13;;;10.40;59.60;;;;;;937037;149;27460;-74
2022/05/29 02:29:58;;;;;;;2.77;1.80;;;10.40;59.80;;;;;;942728;149;27872;-74
2022/05/29 02:32:49;;;;;;;3.87;1.90;;;10.40;59.90;;;;;;943080;149;27353;-74
2022/05/29 02:35:18;;;;;;;2.80;2.17;;;10.40;60.00;;;;;;942109;149;27954;-74
2022/05/29 02:38:06;;;;;;;3.40;2.07;;;10.40;60.10;;;;;;942251;149;27329;-74
2022/05/29 02:40:53;;;;;;;6.13;1.90;;;10.30;60.10;;;;;;941740;149;27326;-74
2022/05/29 02:43:25;;;;;;;3.80;1.33;;;10.40;60.30;;;;;;942306;149;27441;-74
2022/05/29 02:46:13;;;;;;;3.87;2.00;;;10.30;60.10;;;;;;942168;149;27318;-75
2022/05/29 02:48:54;;;;;;;2.63;1.67;;;10.30;60.40;;;;;;941460;149;27406;-75
2022/05/29 02:51:33;;;;;;;2.17;1.73;;;10.30;60.60;;;;;;921963;149;27382;-74
2022/05/29 02:53:59;;;;;;;4.87;1.90;;;10.40;60.70;;;;;;940511;149;27831;-74
2022/05/29 02:56:26;;;;;;;5.63;1.90;;;10.40;60.70;;;;;;942378;149;27371;-74
2022/05/29 02:58:53;;;;;;;3.90;2.03;;;10.50;60.90;;;;;;941888;149;27307;-74
2022/05/29 03:01:22;;;;;;;4.17;2.20;;;10.50;61.00;;;;;;941844;149;27321;-74
2022/05/29 03:03:52;;;;;;;3.73;2.10;;;10.60;61.70;;;;;;941132;149;27366;-74
2022/05/29 03:06:20;;;;;;;2.40;1.80;;;10.70;61.00;;;;;;942544;149;27461;-74
2022/05/29 03:08:50;;;;;;;3.43;1.90;;;10.70;61.00;;;;;;936306;149;27962;-74
2022/05/29 03:11:28;;;;;;;2.87;1.70;;;10.80;60.80;;;;;;941574;149;27372;-74
2022/05/29 03:14:04;;;;;;;3.07;2.00;;;10.90;60.90;;;;;;942003;150;27710;-74
2022/05/29 03:16:33;;;;;;;3.50;1.70;;;10.90;60.80;;;;;;942122;149;27470;-74
2022/05/29 03:19:08;;;;;;;4.53;2.00;;;11.00;60.70;;;;;;941214;149;27342;-74
2022/05/29 03:21:41;;;;;;;2.67;1.63;;;11.10;60.70;;;;;;941319;149;27802;-74
2022/05/29 03:24:27;;;;;;;4.00;1.73;;;11.10;60.50;;;;;;938000;149;27459;-74
2022/05/29 03:26:52;;;;;;;2.73;1.80;;;11.20;60.50;;;;;;941438;149;27548;-74
2022/05/29 03:29:25;;;;;;;2.67;1.80;;;11.20;60.30;;;;;;941879;149;27353;-74
2022/05/29 03:31:52;;;;;;;2.53;1.80;;;11.30;60.50;;;;;;939780;149;27419;-74
2022/05/29 03:34:18;;;;;;;3.50;1.70;;;11.30;60.30;;;;;;942755;149;27369;-74
2022/05/29 03:36:45;;;;;;;4.03;1.90;;;11.30;60.30;;;;;;941097;150;27865;-74
2022/05/29 03:39:12;;;;;;;2.30;1.60;;;11.30;60.50;;;;;;941462;149;27315;-74
2022/05/29 03:41:44;;;;;;;2.47;1.50;;;11.40;60.50;;;;;;943412;149;27722;-74
2022/05/29 03:44:07;;;;;;;4.17;1.87;;;11.40;60.30;;;;;;941602;149;27402;-74
2022/05/29 03:46:34;;;;;;;2.50;1.90;;;11.40;60.30;;;;;;941580;149;27302;-74
2022/05/29 03:49:01;;;;;;;2.53;1.70;;;11.50;60.00;;;;;;942141;149;27454;-74
2022/05/29 03:51:27;;;;;;;3.57;1.90;;;11.50;60.20;;;;;;941873;149;27390;-74
2022/05/29 03:53:54;;;;;;;4.83;2.20;;;11.50;60.00;;;;;;942049;149;27373;-74
2022/05/29 03:56:20;;;;;;;2.73;2.07;;;11.50;60.00;;;;;;942774;149;27291;-74
2022/05/29 03:58:47;;;;;;;4.03;2.00;;;11.50;60.00;;;;;;941759;150;27404;-74
2022/05/29 04:01:14;;;;;;;5.33;2.10;;;11.50;60.00;;;;;;942624;149;27391;-74
2022/05/29 04:03:40;;;;;;;5.23;1.87;;;11.50;60.00;;;;;;941980;149;27457;-74
2022/05/29 04:06:07;;;;;;;3.30;1.83;;;11.50;60.10;;;;;;942246;149;27496;-74
2022/05/29 04:14:02;;;;;;;2.53;2.00;;;11.70;60.20;;;;;;941557;149;27397;-74
2022/05/29 04:16:29;;;;;;;5.07;2.37;;;11.70;60.00;;;;;;945489;151;27483;-73
2022/05/29 04:18:56;;;;;;;3.07;1.90;;;11.80;60.30;;;;;;937792;151;27467;-74
2022/05/29 04:21:22;;;;;;;2.87;1.50;;;11.80;60.40;;;;;;929965;154;29071;-73
2022/05/29 04:23:49;;;;;;;4.53;1.90;;;11.90;60.40;;;;;;929918;154;27623;-73
2022/05/29 04:26:15;;;;;;;2.97;2.03;;;12.00;60.60;;;;;;936785;150;27704;-73
2022/05/29 04:28:42;;;;;;;3.03;1.77;;;12.10;60.60;;;;;;928330;152;27421;-73
2022/05/29 04:31:08;;;;;;;4.27;2.10;;;12.20;60.60;;;;;;928134;154;27383;-73
2022/05/29 04:33:35;;;;;;;2.17;1.53;;;12.30;60.50;;;;;;928414;154;27380;-73
2022/05/29 04:36:02;;;;;;;4.30;1.80;;;12.40;60.40;;;;;;928482;154;27333;-73
2022/05/29 04:38:28;;;;;;;4.33;1.60;;;12.50;60.30;;;;;;928817;152;27334;-73
2022/05/29 04:40:55;;;;;;;2.90;1.77;;;12.60;60.00;;;;;;928797;154;27377;-73
2022/05/29 04:43:21;;;;;;;5.90;2.40;;;12.60;59.80;;;;;;936753;151;28028;-73
2022/05/29 04:45:48;;;;;;;2.20;1.50;;;12.70;59.70;;;;;;937799;151;27684;-74
2022/05/29 04:48:16;;;;;;;5.30;1.70;;;12.80;59.70;;;;;;943945;151;27394;-73
2022/05/29 04:50:41;;;;;;;4.77;2.00;;;12.90;59.80;;;;;;928449;154;27387;-73
2022/05/29 04:53:08;;;;;;;3.30;1.70;;;13.00;60.10;;;;;;928348;154;27327;-73
2022/05/29 04:55:34;;;;;;;3.47;1.67;;;13.20;60.50;;;;;;945599;151;27304;-73
2022/05/29 04:58:01;;;;;;;2.33;1.67;;;13.40;60.80;;;;;;930762;154;27454;-73
2022/05/29 05:00:28;;;;;;;4.33;1.80;;;13.80;62.10;;;;;;929989;154;28365;-74
2022/05/29 05:02:54;;;;;;;1.70;1.60;;;14.20;61.60;;;;;;928587;154;27433;-73
2022/05/29 05:05:21;;;;;;;5.75;1.45;;;14.70;61.60;;;;;;945565;151;27324;-73
2022/05/29 05:07:47;;;;;;;4.07;1.60;;;15.30;61.40;;;;;;935884;151;27375;-73
2022/05/29 05:10:15;;;;;;;6.07;1.37;;;15.80;60.90;;;;;;929595;154;27439;-73
2022/05/29 05:12:40;;;;;;;2.62;1.67;;;16.40;60.70;;;;;;928356;154;27844;-73
2022/05/29 05:15:07;;;;;;;1.65;1.47;;;17.00;59.70;;;;;;939808;151;27484;-73
2022/05/29 05:17:34;;;;;;;2.72;1.20;;;17.60;59.10;;;;;;936012;151;27457;-74
2022/05/29 05:20:00;;;;;;;2.15;1.20;;;18.20;58.30;;;;;;945335;151;27286;-74
2022/05/29 05:22:27;;;;;;;2.47;1.50;;;18.70;57.60;;;;;;937147;151;27420;-74
2022/05/29 05:24:53;;;;;;;3.00;1.37;;;19.30;57.00;;;;;;938119;153;27395;-74
2022/05/29 05:27:20;;;;;;;2.20;1.40;;;19.80;56.20;;;;;;945571;151;27361;-74
2022/05/29 05:29:47;;;;;;;2.10;1.40;;;20.30;55.50;;;;;;929057;154;27405;-74
2022/05/29 05:32:13;;;;;;;1.67;0.95;;;20.80;54.60;;;;;;936180;151;27303;-74
2022/05/29 05:34:41;;;;;;;1.25;0.90;;;21.20;53.90;;;;;;928170;152;27436;-74
2022/05/29 05:37:06;;;;;;;2.45;1.27;;;21.60;53.20;;;;;;930218;153;27358;-74
2022/05/29 05:39:33;;;;;;;1.90;1.10;;;22.00;52.50;;;;;;930200;154;27354;-74
2022/05/29 05:42:00;;;;;;;1.65;1.22;;;22.40;52.10;;;;;;930205;154;27377;-74
2022/05/29 05:44:26;;;;;;;2.40;1.22;;;22.70;51.40;;;;;;930668;152;27420;-74
2022/05/29 05:46:53;;;;;;;3.50;1.07;;;23.10;50.90;;;;;;930226;152;27326;-74
2022/05/29 05:49:19;;;;;;;1.45;1.17;;;23.40;50.30;;;;;;937725;151;27468;-74
2022/05/29 05:51:46;;;;;;;2.20;1.42;;;23.70;49.70;;;;;;937116;151;27406;-74
2022/05/29 05:54:13;;;;;;;2.92;1.45;;;24.10;49.20;;;;;;944160;151;27286;-74
2022/05/29 05:56:42;;;;;;;3.98;1.50;;;24.30;48.50;;;;;;937196;151;27301;-74
2022/05/29 05:59:08;;;;;;;5.58;1.60;;;24.70;48.00;;;;;;929677;151;27467;-74
2022/05/29 06:01:35;;;;;;;1.57;1.10;;;24.90;47.30;;;;;;941517;152;27359;-74
2022/05/29 06:04:02;;;;;;;2.98;1.25;;;25.10;46.80;;;;;;925645;154;27452;-74
2022/05/29 06:06:28;;;;;;;2.58;1.05;;;25.30;46.50;;;;;;937209;153;27418;-74
2022/05/29 06:08:56;;;;;;;2.30;1.30;;;25.50;46.30;;;;;;945017;151;27566;-74
2022/05/29 06:11:21;;;;;;;1.42;1.07;;;25.80;45.80;;;;;;944866;151;28413;-74
2022/05/29 06:13:48;;;;;;;1.57;1.00;;;26.00;45.50;;;;;;945871;151;27334;-74
2022/05/29 06:16:15;;;;;;;1.30;1.20;;;26.30;44.90;;;;;;944537;149;27511;-74
2022/05/29 06:18:41;;;;;;;1.27;1.07;;;26.50;44.60;;;;;;943727;149;27456;-74
2022/05/29 06:21:08;;;;;;;1.20;0.95;;;26.80;44.70;;;;;;943750;149;27334;-74
2022/05/29 06:23:34;;;;;;;2.65;1.30;;;27.20;44.30;;;;;;943985;149;27314;-74
2022/05/29 06:26:04;;;;;;;3.10;1.40;;;27.50;44.10;;;;;;943984;149;27384;-74
2022/05/29 06:28:30;;;;;;;3.92;1.07;;;27.80;43.90;;;;;;944357;149;27377;-74
2022/05/29 06:30:57;;;;;;;2.10;1.12;;;28.20;42.70;;;;;;944897;149;27241;-74
2022/05/29 06:33:26;;;;;;;1.65;1.32;;;28.50;42.40;;;;;;943901;149;27341;-74
2022/05/29 06:35:51;;;;;;;2.77;1.77;;;28.90;42.30;;;;;;944217;149;27322;-74
2022/05/29 06:38:17;;;;;;;1.50;1.40;;;29.10;41.80;;;;;;944090;149;27294;-74
2022/05/29 06:40:49;;;;;;;2.08;1.00;;;29.50;41.30;;;;;;944312;149;27366;-74
2022/05/29 06:43:11;;;;;;;1.55;1.02;;;29.70;40.70;;;;;;943510;149;28343;-74
2022/05/29 06:45:36;;;;;;;3.22;1.30;;;30.00;40.30;;;;;;943983;148;27299;-74
2022/05/29 06:48:03;;;;;;;2.55;1.37;;;30.20;40.00;;;;;;935100;149;27357;-74
2022/05/29 06:50:30;;;;;;;3.42;1.50;;;30.40;39.40;;;;;;938844;150;27430;-74
2022/05/29 06:52:56;;;;;;;1.82;1.05;;;30.50;38.70;;;;;;928357;150;27411;-74
2022/05/29 06:55:23;;;;;;;1.98;1.30;;;30.70;38.30;;;;;;927840;150;27363;-74
2022/05/29 06:57:51;;;;;;;1.98;1.12;;;30.70;37.50;;;;;;928108;150;27325;-74
2022/05/29 07:08:33;;;;;;;1.65;1.20;;;31.30;37.50;;;;;;944106;148;27362;-74
2022/05/29 07:11:00;;;;;;;2.77;1.00;;;31.50;37.10;;;;;;935940;149;27462;-74
2022/05/29 07:13:27;;;;;;;1.65;1.20;;;31.70;36.50;;;;;;928142;150;27439;-74
2022/05/29 07:15:53;;;;;;;2.72;1.00;;;31.80;35.80;;;;;;926971;150;27329;-74
2022/05/29 07:18:19;;;;;;;2.27;1.10;;;32.00;35.70;;;;;;937861;150;27306;-74
2022/05/29 07:20:46;;;;;;;1.92;0.95;;;32.00;35.10;;;;;;944564;148;27620;-74
2022/05/29 07:23:14;;;;;;;2.08;0.80;;;32.10;34.10;;;;;;928519;150;27808;-74
2022/05/29 07:25:39;;;;;;;2.75;1.10;;;32.10;34.60;;;;;;940828;149;27327;-74
2022/05/29 07:28:06;;;;;;;3.40;1.20;;;32.10;34.60;;;;;;941804;149;27411;-74
2022/05/29 07:30:32;;;;;;;1.95;1.35;;;32.10;34.40;;;;;;941823;149;27295;-74
2022/05/29 07:33:00;;;;;;;3.72;1.10;;;32.30;34.20;;;;;;941385;149;27331;-74
2022/05/29 07:35:26;;;;;;;2.22;1.00;;;32.30;34.30;;;;;;942310;149;27443;-74
2022/05/29 07:37:52;;;;;;;1.87;1.02;;;32.50;34.30;;;;;;942044;149;27432;-75
2022/05/29 07:40:19;;;;;;;3.02;1.10;;;32.70;33.80;;;;;;941486;149;27286;-74
2022/05/29 07:45:30;;;;;;;1.62;0.90;;;33.10;33.30;;;;;;942511;149;27366;-75
2022/05/29 07:47:57;;;;;;;1.17;0.62;;;33.40;33.20;;;;;;941211;149;27416;-74
2022/05/29 07:50:23;;;;;;;2.87;1.07;;;33.70;33.00;;;;;;941162;149;27357;-75
2022/05/29 07:52:54;;;;;;;2.85;1.05;;;33.90;32.10;;;;;;941520;149;27407;-75
2022/05/29 07:55:20;;;;;;;1.02;0.70;;;34.10;31.70;;;;;;941768;149;27432;-75
2022/05/29 07:57:46;;;;;;;2.30;1.20;;;34.30;31.70;;;;;;942325;149;27370;-74
2022/05/29 08:00:13;;;;;;;1.17;0.78;;;34.40;30.90;;;;;;942254;149;26249;-74
2022/05/29 08:02:39;;;;;;;2.80;1.30;;;34.40;30.70;;;;;;942383;149;27359;-74
2022/05/29 08:05:06;;;;;;;1.60;0.75;;;34.50;29.70;;;;;;942157;149;27372;-75
2022/05/29 08:07:33;;;;;;;0.95;0.80;;;34.50;30.00;;;;;;941636;149;27290;-75
2022/05/29 08:09:59;;;;;;;1.37;0.90;;;34.50;30.00;;;;;;941732;149;26328;-75
2022/05/29 08:12:26;;;;;;;1.27;0.70;;;34.50;30.10;;;;;;942369;149;27343;-75
2022/05/29 08:14:52;;;;;;;2.22;0.93;;;34.70;30.20;;;;;;942497;149;26659;-75
2022/05/29 08:17:19;;;;;;;1.92;1.00;;;34.80;30.00;;;;;;942055;149;27424;-74
2022/05/29 08:19:46;;;;;;;1.75;0.82;;;35.00;29.70;;;;;;941831;149;26269;-74
2022/05/29 08:22:12;;;;;;;2.35;0.98;;;35.10;29.50;;;;;;942102;149;26317;-75
2022/05/29 08:32:56;;;;;;;4.97;1.72;;;35.40;29.40;;;;;;941329;149;26338;-75
2022/05/29 08:35:23;;;;;;;1.62;1.10;;;35.70;29.50;;;;;;942273;149;26389;-75
2022/05/29 08:37:49;;;;;;;1.37;0.90;;;36.00;29.40;;;;;;942778;149;26232;-74
2022/05/29 08:40:16;;;;;;;1.70;0.65;;;36.30;28.80;;;;;;941950;149;26335;-74
2022/05/29 08:42:43;;;;;;;1.42;0.70;;;36.60;28.40;;;;;;942279;149;26322;-74
2022/05/29 08:45:12;;;;;;;1.10;0.82;;;36.80;28.10;;;;;;941401;149;26214;-75
2022/05/29 08:47:36;;;;;;;1.95;1.17;;;37.00;27.80;;;;;;941944;149;26363;-74
2022/05/29 08:50:02;;;;;;;1.72;0.80;;;37.10;27.80;;;;;;942042;149;26264;-74
2022/05/29 08:52:47;;;;;;;0.90;0.85;;;37.20;27.40;;;;;;941207;149;26300;-75
2022/05/29 08:55:25;;;;;;;1.52;0.55;;;37.40;27.50;;;;;;941569;149;26208;-75
2022/05/29 08:58:07;;;;;;;1.40;0.90;;;37.50;27.30;;;;;;942599;149;26633;-74
2022/05/29 09:00:49;;;;;;;2.27;1.10;;;37.50;26.50;;;;;;942531;149;26264;-74
2022/05/29 09:03:33;;;;;;;1.20;0.68;;;37.30;26.20;;;;;;942014;149;26303;-74
2022/05/29 09:06:06;;;;;;;1.20;0.75;;;36.80;25.70;;;;;;941617;149;27407;-74
2022/05/29 09:08:32;;;;;;;1.50;1.07;;;36.10;25.40;;;;;;941389;149;27416;-75
2022/05/29 09:10:59;;;;;;;1.77;0.62;;;35.20;25.30;;;;;;942204;149;27420;-74
2022/05/29 09:13:35;;;;;;;1.00;0.68;;;34.50;25.50;;;;;;941619;149;27362;-75
2022/05/29 09:16:00;;;;;;;2.22;0.80;;;33.90;26.20;;;;;;938707;149;27408;-74
2022/05/29 09:18:33;;;;;;;1.57;0.78;;;33.50;27.00;;;;;;941155;149;27463;-74
2022/05/29 09:21:05;;;;;;;1.17;0.70;;;33.30;27.40;;;;;;942190;149;27367;-75
2022/05/29 09:23:32;;;;;;;1.80;0.82;;;33.30;27.40;;;;;;941411;149;27860;-74
2022/05/29 09:25:58;;;;;;;1.22;0.88;;;33.30;27.20;;;;;;941748;149;27343;-74
2022/05/29 09:28:36;;;;;;;1.67;0.70;;;33.40;27.20;;;;;;942437;149;27434;-75
2022/05/29 09:31:06;;;;;;;1.30;0.60;;;33.50;27.40;;;;;;942534;149;27312;-75
2022/05/29 09:33:33;;;;;;;1.02;0.88;;;33.60;27.20;;;;;;940292;149;27484;-74
2022/05/29 09:36:18;;;;;;;1.20;0.55;;;33.50;26.60;;;;;;942282;149;27370;-75
2022/05/29 09:38:50;;;;;;;1.82;0.70;;;33.20;25.80;;;;;;942556;149;27267;-74
2022/05/29 09:41:19;;;;;;;0.98;0.72;;;32.60;25.30;;;;;;919383;149;27328;-74
2022/05/29 09:44:04;;;;;;;1.17;0.70;;;31.80;25.40;;;;;;941411;149;27357;-74
2022/05/29 09:46:31;;;;;;;1.87;0.93;;;31.10;25.60;;;;;;941006;149;27355;-74
2022/05/29 09:51:42;;;;;;;0.72;0.62;;;29.50;26.10;;;;;;942503;149;27400;-74
2022/05/29 09:54:09;;;;;;;0.82;0.65;;;28.70;26.20;;;;;;941840;149;27311;-74
2022/05/29 09:56:35;;;;;;;0.90;0.60;;;28.10;26.70;;;;;;941154;149;27310;-74
2022/05/29 09:59:14;;;;;;;1.17;0.47;;;27.60;27.00;;;;;;942828;149;27429;-74
2022/05/29 10:01:42;;;;;;;0.90;0.50;;;27.20;27.30;;;;;;941581;149;27481;-74
2022/05/29 10:04:09;;;;;;;0.75;0.50;;;26.80;27.90;;;;;;941326;150;27385;-74
2022/05/29 10:06:43;;;;;;;1.20;0.70;;;26.60;28.30;;;;;;932471;149;27319;-74
2022/05/29 10:09:18;;;;;;;0.98;0.40;;;26.60;28.60;;;;;;941848;149;27805;-74
2022/05/29 10:11:45;;;;;;;1.35;0.60;;;26.60;28.50;;;;;;942008;149;27307;-74
2022/05/29 10:14:30;;;;;;;0.50;0.50;;;26.70;28.60;;;;;;942348;149;27474;-74
2022/05/29 10:16:55;;;;;;;1.17;0.70;;;26.70;28.80;;;;;;940629;149;27320;-74
2022/05/29 10:19:34;;;;;;;0.65;0.42;;;26.70;28.80;;;;;;942209;149;27359;-74
2022/05/29 10:22:01;;;;;;;0.98;0.80;;;26.70;28.90;;;;;;942007;149;27720;-74
2022/05/29 10:24:28;;;;;;;0.47;0.47;;;26.80;28.80;;;;;;941802;149;27338;-74
2022/05/29 10:26:54;;;;;;;0.68;0.53;;;26.80;28.80;;;;;;941890;149;27413;-74
2022/05/29 10:29:30;;;;;;;1.25;0.57;;;26.90;28.70;;;;;;942286;149;27385;-74
2022/05/29 10:31:56;;;;;;;0.98;0.45;;;26.90;28.50;;;;;;939927;149;27448;-73
2022/05/29 10:34:25;;;;;;;3.17;0.95;;;26.90;28.30;;;;;;940818;149;27319;-74
2022/05/29 10:36:52;;;;;;;0.37;0.37;;;26.80;28.20;;;;;;941446;149;27366;-74
2022/05/29 10:39:21;;;;;;;1.62;0.70;;;26.50;28.10;;;;;;941579;149;27749;-74
2022/05/29 10:41:48;;;;;;;1.47;1.00;;;26.30;28.00;;;;;;940301;149;28018;-74
2022/05/29 10:44:33;;;;;;;0.50;0.40;;;26.00;28.00;;;;;;940467;149;27284;-74
2022/05/29 10:47:05;;;;;;;0.80;0.70;;;25.60;28.20;;;;;;940171;149;27387;-74
2022/05/29 10:49:34;;;;;;;0.98;0.57;;;25.20;28.30;;;;;;939406;149;27400;-74
2022/05/29 10:52:04;;;;;;;1.07;0.70;;;24.80;28.70;;;;;;940923;149;27977;-74
2022/05/29 10:54:43;;;;;;;1.50;0.78;;;24.60;29.50;;;;;;939439;149;28014;-74
2022/05/29 10:57:43;;;;;;;1.72;0.70;;;24.30;29.30;;;;;;940135;149;27382;-74
2022/05/29 11:00:28;;;;;;;0.60;0.60;;;24.10;29.40;;;;;;942639;148;27333;-74
2022/05/29 11:03:33;;;;;;;1.32;0.72;;;23.90;29.70;;;;;;939644;149;27404;-74
2022/05/29 11:06:00;;;;;;;1.00;0.88;;;23.80;30.00;;;;;;927160;150;27343;-74
2022/05/29 11:08:33;;;;;;;0.62;0.60;;;23.80;30.30;;;;;;935390;150;27905;-74
2022/05/29 11:11:05;;;;;;;0.70;0.55;;;23.70;30.50;;;;;;937201;150;27347;-74
2022/05/29 11:13:50;;;;;;;1.22;0.75;;;23.80;30.70;;;;;;925097;150;27707;-74
2022/05/29 11:16:35;;;;;;;0.80;0.80;;;23.90;30.80;;;;;;942966;148;27349;-74
2022/05/29 11:19:32;;;;;;;0.70;0.53;;;24.10;30.90;;;;;;940651;149;27365;-74
2022/05/29 11:22:29;;;;;;;2.90;0.78;;;24.30;30.80;;;;;;941742;149;27331;-74
2022/05/29 11:25:05;;;;;;;0.50;0.40;;;24.50;30.50;;;;;;941319;149;27431;-74
2022/05/29 11:27:40;;;;;;;1.00;0.65;;;24.60;30.40;;;;;;940987;149;27301;-74
2022/05/29 11:30:13;;;;;;;1.80;0.50;;;24.70;30.20;;;;;;939670;149;27366;-74
2022/05/29 11:32:57;;;;;;;1.65;0.90;;;24.70;30.00;;;;;;940409;149;27437;-74
2022/05/29 11:35:24;;;;;;;0.40;0.40;;;24.60;29.90;;;;;;939593;149;27319;-74
2022/05/29 11:38:24;;;;;;;1.80;1.00;;;24.50;29.90;;;;;;941026;149;27391;-74
2022/05/29 11:40:50;;;;;;;1.07;0.68;;;24.50;29.90;;;;;;939826;149;27319;-74
2022/05/29 11:43:35;;;;;;;1.35;0.62;;;24.30;29.80;;;;;;942200;149;27362;-74
2022/05/29 11:52:04;;;;;;;0.82;0.50;;;24.00;29.80;;;;;;942197;149;27555;-74
2022/05/29 11:54:45;;;;;;;0.85;0.82;;;23.90;29.90;;;;;;933081;149;27841;-74
2022/05/29 11:57:12;;;;;;;0.60;0.40;;;23.70;29.90;;;;;;941306;149;27314;-74
2022/05/29 11:59:53;;;;;;;1.57;0.65;;;23.50;29.90;;;;;;941538;149;27458;-74
2022/05/29 12:02:26;;;;;;;0.85;0.72;;;23.40;30.00;;;;;;941543;149;27366;-74
2022/05/29 12:05:14;;;;;;;0.70;0.57;;;23.20;30.00;;;;;;942361;149;27309;-74
2022/05/29 12:07:43;;;;;;;1.07;0.75;;;23.00;30.10;;;;;;942554;149;27278;-74
2022/05/29 12:10:22;;;;;;;0.60;0.60;;;22.90;30.20;;;;;;942009;149;27402;-74
2022/05/29 12:12:48;;;;;;;0.60;0.42;;;22.70;30.50;;;;;;941715;149;27415;-74
2022/05/29 12:15:18;;;;;;;1.40;0.98;;;22.60;30.70;;;;;;941437;149;27376;-73
2022/05/29 12:17:56;;;;;;;0.75;0.60;;;22.60;30.60;;;;;;941468;149;27449;-74
2022/05/29 12:20:41;;;;;;;1.47;0.50;;;22.60;30.70;;;;;;936371;149;27364;-74
2022/05/29 12:23:28;;;;;;;1.27;0.55;;;22.60;30.70;;;;;;945535;151;27445;-74
2022/05/29 12:26:01;;;;;;;1.12;0.68;;;22.60;30.80;;;;;;928018;154;27495;-73
2022/05/29 12:28:38;;;;;;;2.37;0.88;;;22.60;30.90;;;;;;928424;154;27641;-74
2022/05/29 12:31:05;;;;;;;0.72;0.72;;;22.60;31.00;;;;;;937252;151;27335;-74
2022/05/29 12:33:32;;;;;;;0.60;0.60;;;22.50;30.90;;;;;;937213;151;27382;-74
2022/05/29 12:36:17;;;;;;;2.12;0.80;;;22.50;30.90;;;;;;928608;154;28599;-74
2022/05/29 12:38:57;;;;;;;0.70;0.70;;;22.50;31.00;;;;;;945064;151;27364;-74
2022/05/29 12:41:22;;;;;;;0.75;0.60;;;22.40;31.00;;;;;;929109;153;27267;-74
2022/05/29 12:44:18;;;;;;;0.90;0.80;;;22.40;31.00;;;;;;927284;151;27402;-74
2022/05/29 12:46:51;;;;;;;0.57;0.40;;;22.30;31.00;;;;;;928864;154;27317;-73
2022/05/29 12:49:30;;;;;;;0.75;0.68;;;22.20;31.70;;;;;;929612;153;27348;-74
2022/05/29 12:52:15;;;;;;;1.07;0.90;;;22.00;31.30;;;;;;930381;151;27477;-73
2022/05/29 12:54:50;;;;;;;0.70;0.47;;;21.80;31.20;;;;;;945345;151;27837;-73
2022/05/29 12:57:35;;;;;;;0.80;0.60;;;21.60;31.30;;;;;;928014;154;27436;-74
2022/05/29 13:00:10;;;;;;;0.60;0.60;;;21.40;31.60;;;;;;929195;154;27471;-74
2022/05/29 13:02:48;;;;;;;1.62;0.55;;;21.30;31.80;;;;;;946789;151;27421;-74
2022/05/29 13:05:21;;;;;;;0.90;0.50;;;21.20;32.10;;;;;;925500;153;27843;-74
2022/05/29 13:08:24;;;;;;;0.72;0.70;;;21.10;32.20;;;;;;936707;151;27424;-74
2022/05/29 13:10:50;;;;;;;1.02;0.78;;;21.10;32.20;;;;;;930751;152;27354;-74
2022/05/29 13:13:23;;;;;;;0.53;0.53;;;21.10;32.20;;;;;;928762;153;27770;-75
2022/05/29 13:15:49;;;;;;;0.82;0.60;;;21.10;32.30;;;;;;943817;151;27438;-75
2022/05/29 13:21:07;;;;;;;0.50;0.50;;;21.20;32.50;;;;;;931080;151;27406;-75
2022/05/29 13:23:33;;;;;;;1.25;0.50;;;21.30;32.60;;;;;;945129;151;27844;-75
2022/05/29 13:26:00;;;;;;;1.00;0.68;;;21.40;32.70;;;;;;933051;151;27302;-75
2022/05/29 13:28:27;;;;;;;0.75;0.47;;;21.40;32.60;;;;;;929693;152;27310;-75
2022/05/29 13:31:05;;;;;;;1.30;0.60;;;21.50;32.70;;;;;;930417;152;27365;-75
2022/05/29 13:33:32;;;;;;;0.70;0.70;;;21.60;32.90;;;;;;928280;153;27504;-75
2022/05/29 13:35:58;;;;;;;0.80;0.80;;;21.70;33.00;;;;;;929729;151;27435;-75
2022/05/29 13:38:47;;;;;;;3.45;0.60;;;21.80;32.70;;;;;;927985;154;27410;-74
2022/05/29 13:41:26;;;;;;;1.27;0.57;;;21.90;32.50;;;;;;929824;154;27294;-74
2022/05/29 13:43:52;;;;;;;0.75;0.53;;;22.00;32.30;;;;;;930030;153;27314;-74